Time;durP1;ratioP1;P1;durP2;ratioP2;P2;SDS_P1;SDS_P2;PMS_P1;PMS_P2;Temp;Humidity;BMP_temperature;BMP_pressure;BME280_temperature;BME280_humidity;BME280_pressure;Samples;Min_cycle;Max_cycle;Signal;HPM_P1;HPM_P2
2022/01/12 00:02:14;;;;;;;28.50;13.43;;;5.10;81.90;;;;;;4993787;28;20022;-87
2022/01/12 00:04:40;;;;;;;20.13;12.45;;;5.00;82.00;;;;;;4976606;28;20033;-85
2022/01/12 00:07:06;;;;;;;22.75;13.30;;;5.00;82.10;;;;;;4974293;28;20034;-87
2022/01/12 00:09:32;;;;;;;21.77;12.85;;;5.10;82.20;;;;;;4987141;28;20026;-87
2022/01/12 00:11:59;;;;;;;21.33;14.32;;;5.00;82.30;;;;;;4993669;28;20400;-86
2022/01/12 00:14:27;;;;;;;21.67;13.45;;;5.00;82.50;;;;;;4977040;28;20497;-88
2022/01/12 00:16:58;;;;;;;22.77;12.82;;;5.00;82.50;;;;;;4977181;28;20119;-88
2022/01/12 00:19:25;;;;;;;25.30;14.02;;;5.00;82.70;;;;;;4978056;28;20057;-85
2022/01/12 00:21:51;;;;;;;29.50;16.33;;;5.00;82.80;;;;;;4993022;28;20026;-85
2022/01/12 00:24:17;;;;;;;24.77;14.25;;;5.00;83.10;;;;;;4976861;28;20041;-88
2022/01/12 00:33:08;;;;;;;24.23;14.55;;;4.90;83.20;;;;;;4978999;28;20026;-90
2022/01/12 00:34:57;;;;;;;25.90;15.45;;;4.90;83.80;;;;;;4980847;28;20122;-85
2022/01/12 00:37:22;;;;;;;23.42;14.23;;;4.90;84.00;;;;;;4977342;28;20414;-85
2022/01/12 00:39:48;;;;;;;26.52;16.13;;;4.90;83.90;;;;;;4977581;28;20033;-86
2022/01/12 00:42:14;;;;;;;27.67;15.30;;;4.90;84.20;;;;;;4977363;28;20026;-85
2022/01/12 00:44:44;;;;;;;23.45;15.15;;;4.80;84.40;;;;;;4977036;28;20137;-85
2022/01/12 00:47:11;;;;;;;26.50;16.40;;;4.80;84.50;;;;;;4979765;28;20080;-86
2022/01/12 00:49:37;;;;;;;23.70;15.95;;;4.80;84.70;;;;;;4980018;28;20091;-85
2022/01/12 00:52:03;;;;;;;27.85;16.35;;;4.80;84.80;;;;;;4964174;28;20030;-89
2022/01/12 00:54:29;;;;;;;26.85;15.73;;;4.80;84.90;;;;;;4981543;28;20026;-89
2022/01/12 00:56:54;;;;;;;28.73;17.30;;;4.80;84.90;;;;;;4980929;28;20480;-89
2022/01/12 00:59:20;;;;;;;30.42;18.33;;;4.80;84.90;;;;;;4981728;28;20026;-90
2022/01/12 01:01:46;;;;;;;28.10;18.00;;;4.80;85.00;;;;;;4997088;28;20025;-85
2022/01/12 01:04:12;;;;;;;27.23;17.77;;;4.80;85.10;;;;;;4979772;28;20516;-85
2022/01/12 01:06:38;;;;;;;29.17;17.30;;;4.80;85.20;;;;;;4979861;28;20121;-85
2022/01/12 01:09:05;;;;;;;29.83;18.27;;;4.80;85.40;;;;;;5013791;28;20450;-85
2022/01/12 01:11:32;;;;;;;26.92;18.13;;;4.80;85.60;;;;;;4980683;28;20036;-89
2022/01/12 01:14:00;;;;;;;26.90;17.33;;;4.80;85.60;;;;;;4997328;28;20120;-89
2022/01/12 01:16:54;;;;;;;24.75;16.35;;;4.80;85.60;;;;;;4980418;28;20018;-86
2022/01/12 01:27:30;;;;;;;27.77;18.35;;;4.80;85.80;;;;;;4999907;28;20029;-89
2022/01/12 01:29:56;;;;;;;31.63;18.98;;;4.80;85.90;;;;;;4980827;28;20022;-89
2022/01/12 01:32:24;;;;;;;27.90;18.75;;;4.80;86.10;;;;;;4980778;28;20026;-89
2022/01/12 01:34:50;;;;;;;32.20;20.92;;;4.80;86.20;;;;;;4980893;28;20028;-89
2022/01/12 01:37:16;;;;;;;30.30;18.48;;;4.80;86.10;;;;;;4980798;28;20022;-88
2022/01/12 01:39:43;;;;;;;28.40;19.13;;;4.80;86.10;;;;;;4996040;28;20045;-88
2022/01/12 01:53:21;;;;;;;31.52;20.27;;;4.80;86.30;;;;;;4985043;28;20532;-85
2022/01/12 01:55:49;;;;;;;28.95;19.38;;;4.80;86.40;;;;;;5012823;28;20026;-85
2022/01/12 01:58:15;;;;;;;33.65;21.88;;;4.80;86.40;;;;;;5014278;28;20161;-89
2022/01/12 02:00:41;;;;;;;30.83;20.60;;;4.80;86.40;;;;;;4980220;28;20565;-88
2022/01/12 02:03:07;;;;;;;30.10;19.35;;;4.80;86.50;;;;;;4979859;28;20053;-88
2022/01/12 02:05:33;;;;;;;32.05;20.67;;;4.80;86.50;;;;;;4964259;28;20053;-89
2022/01/12 02:08:00;;;;;;;29.33;18.95;;;4.90;86.70;;;;;;4976769;28;20037;-87
2022/01/12 02:10:25;;;;;;;37.13;22.55;;;4.90;86.60;;;;;;4976742;28;20486;-88
2022/01/12 02:12:51;;;;;;;32.15;21.17;;;4.90;86.60;;;;;;4944115;28;20057;-89
2022/01/12 02:15:22;;;;;;;33.10;20.90;;;4.90;86.60;;;;;;4968288;28;20038;-88
2022/01/12 02:40:38;;;;;;;34.00;21.10;;;4.90;86.60;;;;;;4973215;28;20443;-88
2022/01/12 02:53:42;;;;;;;43.35;23.92;;;4.90;86.70;;;;;;4996218;28;20037;-88
2022/01/12 02:56:13;;;;;;;36.55;23.48;;;4.90;86.70;;;;;;4979086;28;20100;-88
2022/01/12 02:58:41;;;;;;;35.63;22.23;;;4.90;86.80;;;;;;5012644;28;20029;-88
2022/01/12 03:03:46;;;;;;;36.33;23.60;;;4.90;86.70;;;;;;5011099;28;20025;-85
2022/01/12 03:06:17;;;;;;;35.90;23.15;;;4.90;86.80;;;;;;4977727;28;20516;-85
2022/01/12 03:08:43;;;;;;;34.97;22.43;;;4.90;86.80;;;;;;4994520;28;20110;-85
2022/01/12 03:11:15;;;;;;;37.70;23.83;;;4.90;86.80;;;;;;4977255;28;20707;-85
2022/01/12 03:13:41;;;;;;;46.45;24.73;;;4.90;86.90;;;;;;4993168;28;20041;-85
2022/01/12 03:16:16;;;;;;;42.55;24.38;;;4.90;86.80;;;;;;4977301;28;20481;-85
2022/01/12 03:18:47;;;;;;;37.60;23.02;;;4.90;86.90;;;;;;4978600;28;20026;-84
2022/01/12 03:21:14;;;;;;;43.17;25.48;;;4.90;86.90;;;;;;4993732;28;20053;-85
2022/01/12 03:23:40;;;;;;;45.88;25.48;;;4.80;86.90;;;;;;4993531;28;20508;-85
2022/01/12 03:26:08;;;;;;;41.63;24.33;;;4.80;87.10;;;;;;4993587;28;20058;-85
2022/01/12 03:28:34;;;;;;;44.05;25.08;;;4.80;87.10;;;;;;4978612;28;20029;-89
2022/01/12 03:38:49;;;;;;;39.10;23.60;;;4.80;87.10;;;;;;5011218;28;20042;-85
2022/01/12 03:41:16;;;;;;;40.90;24.10;;;4.80;87.20;;;;;;4977364;28;20050;-85
2022/01/12 03:43:41;;;;;;;36.13;22.48;;;4.90;87.20;;;;;;4992620;28;20058;-85
2022/01/12 03:46:07;;;;;;;34.28;20.00;;;4.90;87.20;;;;;;4959916;28;20073;-84
2022/01/12 03:48:33;;;;;;;38.28;22.65;;;4.90;87.20;;;;;;4961680;28;20026;-85
2022/01/12 03:50:58;;;;;;;45.97;24.58;;;4.90;87.20;;;;;;4996931;28;20125;-89
2022/01/12 03:53:24;;;;;;;45.10;26.05;;;4.90;87.10;;;;;;4963284;28;20026;-89
2022/01/12 03:55:51;;;;;;;38.70;22.33;;;4.90;87.00;;;;;;4993982;28;20037;-85
2022/01/12 03:58:17;;;;;;;39.80;23.92;;;4.90;87.10;;;;;;4978766;28;20054;-89
2022/01/12 04:00:42;;;;;;;36.50;22.95;;;4.90;87.20;;;;;;4978137;28;20504;-89
2022/01/12 04:03:08;;;;;;;38.33;23.63;;;4.90;87.20;;;;;;4998987;28;20117;-88
2022/01/12 04:08:20;;;;;;;35.35;22.20;;;4.90;87.20;;;;;;4998834;28;20038;-88
2022/01/12 04:11:00;;;;;;;;;;;4.90;87.20;;;;;;4983553;28;20058;-88
2022/01/12 04:13:28;;;;;;;33.17;20.80;;;4.90;87.00;;;;;;4990207;28;19925;-89
2022/01/12 04:15:58;;;;;;;34.50;22.95;;;4.90;87.10;;;;;;4998107;28;20385;-88
2022/01/12 04:18:24;;;;;;;34.17;21.33;;;4.90;87.30;;;;;;4998009;28;20025;-85
2022/01/12 04:20:50;;;;;;;34.92;20.75;;;4.90;87.30;;;;;;4980947;28;20480;-85
2022/01/12 04:23:19;;;;;;;33.05;22.05;;;4.90;87.20;;;;;;4980436;28;20026;-85
2022/01/12 04:25:46;;;;;;;36.58;22.60;;;4.90;87.30;;;;;;4980956;28;20397;-85
2022/01/12 04:28:12;;;;;;;32.47;22.00;;;4.90;87.30;;;;;;4980555;28;20069;-85
2022/01/12 04:30:38;;;;;;;32.28;21.48;;;5.00;87.30;;;;;;4997683;28;20366;-88
2022/01/12 04:33:04;;;;;;;29.08;19.65;;;5.00;87.30;;;;;;4981063;28;20033;-89
2022/01/12 04:35:33;;;;;;;36.28;23.17;;;5.00;87.30;;;;;;4996880;28;20042;-85
2022/01/12 04:37:59;;;;;;;37.60;22.98;;;5.00;87.30;;;;;;4981256;28;20497;-88
2022/01/12 04:40:25;;;;;;;29.70;19.88;;;5.00;87.30;;;;;;4966001;28;20034;-88
2022/01/12 04:42:53;;;;;;;34.30;22.23;;;5.00;87.30;;;;;;4997460;28;20038;-88
2022/01/12 04:45:55;;;;;;;34.65;20.92;;;5.00;87.30;;;;;;4978774;28;20022;-88
2022/01/12 04:50:56;;;;;;;35.00;22.00;;;5.00;87.40;;;;;;4955098;28;20038;-85
2022/01/12 04:53:22;;;;;;;35.20;23.70;;;5.00;87.40;;;;;;4996044;28;20033;-84
2022/01/12 04:55:49;;;;;;;37.13;24.60;;;4.90;87.40;;;;;;4979831;28;20042;-85
2022/01/12 04:58:16;;;;;;;36.25;23.13;;;4.90;87.40;;;;;;4980350;28;20030;-85
2022/01/12 05:00:43;;;;;;;36.58;22.58;;;5.00;87.40;;;;;;4996535;28;20032;-84
2022/01/12 05:13:52;;;;;;;34.53;23.27;;;5.00;87.50;;;;;;4980347;28;20081;-88
2022/01/12 05:16:19;;;;;;;34.80;23.35;;;5.00;87.40;;;;;;4977915;28;20185;-89
2022/01/12 05:18:46;;;;;;;32.60;21.92;;;5.00;87.50;;;;;;4977843;28;20037;-88
2022/01/12 05:21:13;;;;;;;30.30;19.98;;;5.00;87.40;;;;;;4981146;28;20034;-88
2022/01/12 05:23:39;;;;;;;37.05;22.15;;;5.00;87.50;;;;;;4964843;28;20029;-88
2022/01/12 05:26:06;;;;;;;36.78;23.20;;;5.00;87.50;;;;;;4996932;28;20080;-89
2022/01/12 05:28:33;;;;;;;35.22;23.05;;;5.10;87.50;;;;;;4997075;28;20389;-89
2022/01/12 05:30:59;;;;;;;33.95;21.58;;;5.10;87.50;;;;;;5014378;28;20026;-88
2022/01/12 05:33:26;;;;;;;36.25;22.50;;;5.10;87.50;;;;;;4964756;28;20034;-88
2022/01/12 05:35:54;;;;;;;35.22;22.98;;;5.10;87.40;;;;;;4996753;28;20029;-88
2022/01/12 05:38:20;;;;;;;32.35;22.45;;;5.10;87.50;;;;;;4996683;28;20026;-88
2022/01/12 05:40:47;;;;;;;39.05;24.85;;;5.10;87.40;;;;;;4996991;28;20075;-88
2022/01/12 05:43:14;;;;;;;40.13;25.10;;;5.00;87.50;;;;;;4996688;28;20014;-88
2022/01/12 05:45:44;;;;;;;39.33;23.50;;;5.00;87.50;;;;;;4996776;28;20041;-88
2022/01/12 05:50:38;;;;;;;39.53;25.58;;;5.00;87.70;;;;;;5014093;28;20034;-88
2022/01/12 05:53:05;;;;;;;37.72;24.13;;;5.00;87.70;;;;;;4992012;28;20331;-88
2022/01/12 05:55:30;;;;;;;40.58;24.98;;;5.00;87.70;;;;;;4976594;28;20121;-88
2022/01/12 05:57:56;;;;;;;40.28;24.33;;;5.00;87.80;;;;;;4996164;28;20069;-88
2022/01/12 06:00:24;;;;;;;39.80;23.00;;;5.00;87.90;;;;;;4980609;28;20022;-88
2022/01/12 06:02:50;;;;;;;37.08;23.42;;;5.00;87.90;;;;;;4980194;28;20392;-89
2022/01/12 06:05:18;;;;;;;36.92;23.75;;;5.00;87.90;;;;;;4996422;28;20022;-89
2022/01/12 06:07:48;;;;;;;36.78;22.88;;;5.00;87.90;;;;;;4995733;28;20056;-86
2022/01/12 06:10:14;;;;;;;37.03;23.88;;;5.10;88.00;;;;;;4979577;28;20034;-85
2022/01/12 06:12:40;;;;;;;38.70;24.15;;;5.10;87.90;;;;;;4979640;28;20061;-88
2022/01/12 06:15:07;;;;;;;41.75;23.45;;;5.10;88.00;;;;;;4979948;28;20045;-88
2022/01/12 06:17:34;;;;;;;38.40;23.90;;;5.10;88.00;;;;;;4982767;28;20429;-88
2022/01/12 06:20:00;;;;;;;35.05;21.90;;;5.20;88.00;;;;;;4976794;28;20031;-88
2022/01/12 06:22:26;;;;;;;40.08;23.77;;;5.20;87.90;;;;;;4960748;28;20110;-88
2022/01/12 06:24:51;;;;;;;40.22;22.60;;;5.20;87.90;;;;;;4964290;28;20109;-88
2022/01/12 06:27:20;;;;;;;46.45;21.17;;;5.20;88.00;;;;;;4979857;28;20026;-88
2022/01/12 06:32:15;;;;;;;47.55;22.58;;;5.20;88.00;;;;;;4979876;28;20504;-85
2022/01/12 06:34:40;;;;;;;43.75;22.08;;;5.10;88.10;;;;;;4978652;28;20023;-85
2022/01/12 06:37:06;;;;;;;45.35;24.15;;;5.10;88.20;;;;;;4978716;28;20026;-88
2022/01/12 06:39:32;;;;;;;41.67;23.27;;;5.10;88.30;;;;;;4978788;28;20524;-85
2022/01/12 06:41:58;;;;;;;41.65;22.60;;;5.10;88.30;;;;;;4994215;28;20426;-85
2022/01/12 06:44:25;;;;;;;39.33;21.48;;;5.10;88.40;;;;;;4994292;28;20109;-85
2022/01/12 06:46:53;;;;;;;48.10;24.38;;;5.10;88.40;;;;;;4978090;28;20034;-85
2022/01/12 06:49:19;;;;;;;58.38;24.42;;;5.10;88.30;;;;;;4994195;28;20105;-85
2022/01/12 06:51:46;;;;;;;43.35;24.45;;;5.10;88.50;;;;;;4994241;28;20076;-85
2022/01/12 06:54:12;;;;;;;41.75;22.92;;;5.10;88.50;;;;;;4994358;28;20022;-84
2022/01/12 06:56:39;;;;;;;43.25;23.50;;;5.10;88.50;;;;;;4978061;28;20098;-85
2022/01/12 06:59:05;;;;;;;48.90;23.23;;;5.10;88.70;;;;;;4993290;28;20107;-85
2022/01/12 07:01:31;;;;;;;42.33;21.83;;;5.10;89.40;;;;;;4994099;28;20397;-85
2022/01/12 07:03:59;;;;;;;61.80;22.88;;;5.20;88.80;;;;;;4993821;28;20026;-85
2022/01/12 07:06:24;;;;;;;46.65;23.55;;;5.20;88.80;;;;;;4994016;28;20674;-85
2022/01/12 07:08:50;;;;;;;49.25;23.23;;;5.20;88.70;;;;;;4977357;28;20036;-85
2022/01/12 07:11:16;;;;;;;44.13;22.65;;;5.20;88.70;;;;;;4995548;28;20225;-90
2022/01/12 07:13:42;;;;;;;42.03;22.27;;;5.20;88.70;;;;;;4980619;28;20112;-90
2022/01/12 07:16:08;;;;;;;37.05;19.70;;;5.20;88.70;;;;;;4996813;28;20102;-88
2022/01/12 07:18:34;;;;;;;38.15;19.83;;;5.20;88.70;;;;;;4977564;28;20200;-85
2022/01/12 07:21:00;;;;;;;36.28;18.55;;;5.30;88.70;;;;;;5010607;28;20033;-84
2022/01/12 07:23:27;;;;;;;35.17;19.58;;;5.20;88.50;;;;;;4976434;28;20022;-84
2022/01/12 07:25:53;;;;;;;33.83;19.15;;;5.20;88.60;;;;;;4976411;28;20025;-84
2022/01/12 07:28:20;;;;;;;36.75;19.17;;;5.20;88.60;;;;;;4999061;28;20473;-84
2022/01/12 07:30:46;;;;;;;34.60;18.05;;;5.20;88.60;;;;;;4980560;28;20041;-90
2022/01/12 07:33:13;;;;;;;37.90;18.77;;;5.20;88.60;;;;;;4980957;28;20030;-90
2022/01/12 07:35:39;;;;;;;32.63;16.92;;;5.20;88.50;;;;;;4996703;28;20034;-90
2022/01/12 07:38:05;;;;;;;31.58;17.85;;;5.20;88.50;;;;;;4996560;28;20068;-90
2022/01/12 07:40:33;;;;;;;36.28;18.20;;;5.20;88.50;;;;;;4977567;28;20030;-84
2022/01/12 07:42:59;;;;;;;37.28;19.23;;;5.20;88.40;;;;;;4944125;28;20035;-84
2022/01/12 07:45:25;;;;;;;35.72;17.77;;;5.30;88.40;;;;;;4986217;28;20048;-84
2022/01/12 07:47:51;;;;;;;35.83;18.05;;;5.20;88.30;;;;;;4960463;28;20034;-84
2022/01/12 07:50:16;;;;;;;38.83;18.33;;;5.30;88.30;;;;;;4960739;28;20508;-84
2022/01/12 07:52:42;;;;;;;40.95;17.98;;;5.30;88.20;;;;;;4980198;28;20162;-89
2022/01/12 07:55:08;;;;;;;39.10;18.85;;;5.30;88.20;;;;;;4977506;28;20030;-84
2022/01/12 07:57:34;;;;;;;36.90;18.40;;;5.30;88.20;;;;;;4977093;28;20092;-84
2022/01/12 07:59:59;;;;;;;36.88;17.38;;;5.30;88.10;;;;;;4977168;28;20026;-90
2022/01/12 08:02:26;;;;;;;36.60;16.67;;;5.30;88.10;;;;;;4980530;28;20029;-89
2022/01/12 08:04:51;;;;;;;44.08;20.08;;;5.30;88.10;;;;;;4978903;28;20485;-84
2022/01/12 08:07:17;;;;;;;42.45;20.52;;;5.30;88.10;;;;;;4978191;28;20109;-89
2022/01/12 08:09:44;;;;;;;40.67;19.17;;;5.30;88.10;;;;;;4981050;28;20026;-90
2022/01/12 08:12:10;;;;;;;41.00;18.48;;;5.30;88.10;;;;;;4996543;28;20022;-91
2022/01/12 08:14:36;;;;;;;43.83;19.85;;;5.30;88.10;;;;;;4979857;28;20038;-84
2022/01/12 08:17:02;;;;;;;43.53;19.67;;;5.40;88.10;;;;;;4976597;28;20461;-85
2022/01/12 08:19:29;;;;;;;41.63;19.58;;;5.40;88.00;;;;;;4992992;28;20137;-85
2022/01/12 08:21:55;;;;;;;39.08;17.80;;;5.40;88.00;;;;;;4976544;28;20061;-85
2022/01/12 08:24:21;;;;;;;39.85;18.00;;;5.40;88.00;;;;;;4992129;28;20033;-85
2022/01/12 08:26:48;;;;;;;37.03;18.15;;;5.40;88.00;;;;;;4991343;28;20481;-84
2022/01/12 08:29:15;;;;;;;41.47;19.77;;;5.40;88.00;;;;;;4995662;28;20022;-90
2022/01/12 08:31:43;;;;;;;41.40;18.83;;;5.40;87.90;;;;;;4975210;28;20370;-85
2022/01/12 08:34:10;;;;;;;47.72;20.38;;;5.40;87.90;;;;;;5000736;28;20045;-85
2022/01/12 08:36:37;;;;;;;41.30;20.08;;;5.50;87.90;;;;;;4986733;28;20036;-85
2022/01/12 08:39:03;;;;;;;44.97;20.60;;;5.50;87.90;;;;;;4989083;28;20121;-91
2022/01/12 08:41:29;;;;;;;38.15;19.40;;;5.50;87.90;;;;;;5000989;28;20045;-90
2022/01/12 08:43:55;;;;;;;42.47;19.75;;;5.50;87.90;;;;;;4985610;28;20022;-84
2022/01/12 08:46:20;;;;;;;34.90;16.63;;;5.50;87.80;;;;;;5002672;28;20030;-85
2022/01/12 08:48:46;;;;;;;38.80;18.60;;;5.50;87.70;;;;;;5005637;28;20389;-84
2022/01/12 08:51:12;;;;;;;41.03;19.60;;;5.50;87.70;;;;;;4984571;28;20034;-85
2022/01/12 08:53:38;;;;;;;38.72;19.63;;;5.50;87.60;;;;;;4970898;28;20025;-85
2022/01/12 08:56:04;;;;;;;39.45;18.92;;;5.50;87.60;;;;;;4970861;28;20120;-85
2022/01/12 08:58:29;;;;;;;37.33;17.77;;;5.50;87.60;;;;;;4975384;28;20091;-85
2022/01/12 09:01:00;;;;;;;36.60;18.08;;;5.50;87.60;;;;;;4985099;28;20424;-84
2022/01/12 09:03:25;;;;;;;36.20;17.85;;;5.60;87.60;;;;;;4971067;28;20025;-85
2022/01/12 09:05:51;;;;;;;33.38;17.83;;;5.60;87.60;;;;;;4988283;28;20037;-85
2022/01/12 09:08:17;;;;;;;32.08;17.38;;;5.60;87.50;;;;;;4988761;28;20288;-85
2022/01/12 09:10:43;;;;;;;32.25;17.25;;;5.60;87.50;;;;;;4991727;28;20093;-85
2022/01/12 09:13:08;;;;;;;30.38;17.10;;;5.60;87.50;;;;;;4979415;28;20408;-90
2022/01/12 09:15:34;;;;;;;38.25;18.23;;;5.60;87.50;;;;;;4983514;28;20026;-90
2022/01/12 09:18:00;;;;;;;37.83;19.45;;;5.60;87.40;;;;;;4991290;28;20145;-85
2022/01/12 09:20:26;;;;;;;33.70;18.27;;;5.70;87.40;;;;;;4979786;28;20109;-90
2022/01/12 09:22:52;;;;;;;41.70;20.25;;;5.60;87.20;;;;;;5012489;28;20485;-90
2022/01/12 09:25:19;;;;;;;39.03;20.10;;;5.60;87.10;;;;;;4991605;28;20061;-85
2022/01/12 09:27:44;;;;;;;34.72;19.20;;;5.60;87.10;;;;;;5006298;28;20030;-85
2022/01/12 09:30:13;;;;;;;35.45;18.27;;;5.60;87.10;;;;;;4996717;28;20396;-90
2022/01/12 09:32:39;;;;;;;34.15;17.40;;;5.60;87.10;;;;;;4996615;28;20374;-90
2022/01/12 09:35:05;;;;;;;38.97;20.13;;;5.60;87.10;;;;;;4979344;28;20049;-91
2022/01/12 09:37:31;;;;;;;36.25;19.58;;;5.60;87.10;;;;;;4963490;28;20038;-91
2022/01/12 09:39:57;;;;;;;40.70;20.90;;;5.60;87.00;;;;;;4963694;28;20030;-90
2022/01/12 09:42:23;;;;;;;38.22;18.95;;;5.60;86.90;;;;;;4979225;28;20030;-91
2022/01/12 09:44:49;;;;;;;36.45;18.08;;;5.60;86.90;;;;;;4979418;28;20054;-91
2022/01/12 09:47:16;;;;;;;33.45;18.02;;;5.60;86.80;;;;;;4996035;28;20022;-85
2022/01/12 09:49:43;;;;;;;35.65;19.25;;;5.60;86.80;;;;;;5002083;28;20033;-85
2022/01/12 09:52:10;;;;;;;33.20;17.95;;;5.60;86.80;;;;;;4967733;28;20838;-85
2022/01/12 09:54:37;;;;;;;35.60;17.70;;;5.60;86.80;;;;;;4987916;28;20026;-85
2022/01/12 09:57:04;;;;;;;31.38;16.55;;;5.70;86.80;;;;;;4991240;28;20025;-85
2022/01/12 10:02:53;;;;;;;33.15;16.27;;;5.60;86.50;;;;;;5020051;28;20064;-85
2022/01/12 10:05:29;;;;;;;33.20;17.02;;;5.60;86.50;;;;;;4976854;28;20044;-84
2022/01/12 10:07:55;;;;;;;30.17;16.13;;;5.60;86.60;;;;;;5012256;28;20033;-85
2022/01/12 10:10:20;;;;;;;32.47;16.60;;;5.70;86.70;;;;;;4962740;28;20450;-85
2022/01/12 10:12:54;;;;;;;30.73;16.58;;;5.70;86.70;;;;;;4983023;28;20113;-85
2022/01/12 10:15:20;;;;;;;31.40;16.85;;;5.70;86.70;;;;;;4986188;28;20067;-85
2022/01/12 10:17:46;;;;;;;32.28;16.25;;;5.80;86.70;;;;;;4988138;28;20496;-85
2022/01/12 10:20:12;;;;;;;31.83;15.77;;;5.80;86.70;;;;;;5018191;28;20018;-85
2022/01/12 10:22:42;;;;;;;29.67;16.45;;;5.80;86.70;;;;;;5001352;28;20037;-85
2022/01/12 10:25:20;;;;;;;30.63;15.90;;;5.80;86.50;;;;;;4981019;28;20044;-91
2022/01/12 10:27:46;;;;;;;31.85;16.98;;;5.80;86.40;;;;;;4997308;28;20478;-90
2022/01/12 10:30:21;;;;;;;35.40;17.75;;;5.80;86.50;;;;;;4997878;28;20026;-90
2022/01/12 10:32:57;;;;;;;30.83;16.75;;;5.80;86.50;;;;;;5025675;28;20053;-91
2022/01/12 10:35:27;;;;;;;33.75;16.40;;;5.80;86.40;;;;;;4998233;28;20111;-91
2022/01/12 10:38:08;;;;;;;39.53;17.95;;;5.90;86.40;;;;;;4998138;28;20417;-90
2022/01/12 10:40:52;;;;;;;31.67;16.65;;;5.90;86.30;;;;;;4982490;28;20036;-91
2022/01/12 10:43:37;;;;;;;34.38;16.40;;;5.90;86.00;;;;;;4993129;28;20073;-91
2022/01/12 10:46:09;;;;;;;37.15;17.30;;;5.90;86.00;;;;;;4997935;28;20018;-90
2022/01/12 10:48:53;;;;;;;32.13;17.58;;;5.90;86.00;;;;;;4997245;28;20501;-91
2022/01/12 10:51:21;;;;;;;34.50;17.17;;;5.90;86.10;;;;;;4993180;28;20112;-89
2022/01/12 10:53:50;;;;;;;31.15;17.02;;;6.00;86.10;;;;;;5023227;28;20483;-90
2022/01/12 10:56:19;;;;;;;35.35;15.43;;;6.00;86.10;;;;;;4999587;28;20488;-90
2022/01/12 10:58:51;;;;;;;30.15;16.58;;;6.00;86.10;;;;;;4997386;28;20510;-91
2022/01/12 11:01:19;;;;;;;30.07;15.67;;;6.10;86.20;;;;;;4998168;28;20469;-90
2022/01/12 11:03:45;;;;;;;31.52;16.70;;;6.10;86.10;;;;;;4988080;28;20030;-85
2022/01/12 11:06:12;;;;;;;35.53;17.95;;;6.10;85.90;;;;;;4993716;28;20026;-85
2022/01/12 11:08:40;;;;;;;34.88;17.08;;;6.20;85.80;;;;;;4984907;28;20109;-85
2022/01/12 11:11:06;;;;;;;36.70;16.88;;;6.20;85.80;;;;;;5010902;28;20084;-91
2022/01/12 11:13:33;;;;;;;30.00;15.35;;;6.20;85.60;;;;;;4979886;28;20050;-91
2022/01/12 11:15:59;;;;;;;35.22;17.00;;;6.10;85.40;;;;;;5005012;28;20033;-90
2022/01/12 11:18:28;;;;;;;33.20;16.33;;;6.10;85.40;;;;;;4996030;28;20030;-91
2022/01/12 11:21:01;;;;;;;30.55;16.05;;;6.10;85.40;;;;;;4996128;28;20567;-90
2022/01/12 11:23:39;;;;;;;31.88;16.42;;;6.00;85.40;;;;;;4995993;28;20030;-90
2022/01/12 11:26:15;;;;;;;36.63;15.90;;;6.00;85.60;;;;;;4995673;28;20022;-90
2022/01/12 11:28:41;;;;;;;32.95;17.50;;;6.00;85.70;;;;;;4993456;28;20076;-90
2022/01/12 11:31:08;;;;;;;30.38;15.98;;;6.00;85.80;;;;;;5012152;28;20025;-90
2022/01/12 11:33:40;;;;;;;34.15;15.95;;;6.00;85.60;;;;;;4979233;28;20038;-91
2022/01/12 11:36:28;;;;;;;34.38;16.35;;;6.00;85.30;;;;;;5014513;28;20028;-91
2022/01/12 11:39:07;;;;;;;32.47;16.50;;;6.00;85.90;;;;;;4983243;28;20396;-90
2022/01/12 11:41:35;;;;;;;39.85;18.45;;;6.00;85.50;;;;;;4998357;28;20026;-90
2022/01/12 11:44:01;;;;;;;32.42;16.10;;;6.00;85.30;;;;;;5015702;28;20083;-90
2022/01/12 11:46:39;;;;;;;31.65;16.73;;;6.00;85.40;;;;;;4994199;28;20033;-90
2022/01/12 11:49:06;;;;;;;36.05;18.38;;;6.00;85.30;;;;;;4994513;28;20480;-90
2022/01/12 11:51:44;;;;;;;37.85;17.63;;;6.00;85.00;;;;;;4985267;28;20083;-90
2022/01/12 11:54:12;;;;;;;32.38;16.25;;;6.00;85.00;;;;;;5007677;28;20038;-90
2022/01/12 11:56:50;;;;;;;33.63;16.25;;;6.00;85.30;;;;;;4994680;28;20087;-91
2022/01/12 11:59:15;;;;;;;34.15;15.95;;;6.00;85.30;;;;;;5000221;28;20061;-91
2022/01/12 12:01:44;;;;;;;35.33;16.80;;;6.10;85.10;;;;;;4995001;28;20111;-90
2022/01/12 12:04:20;;;;;;;30.10;15.57;;;6.10;85.00;;;;;;4993168;28;20056;-91
2022/01/12 12:06:46;;;;;;;32.65;15.68;;;6.20;85.00;;;;;;4979259;28;20537;-89
2022/01/12 12:09:18;;;;;;;31.67;15.32;;;6.20;84.70;;;;;;4973689;28;20067;-90
2022/01/12 12:11:51;;;;;;;35.22;16.67;;;6.20;84.80;;;;;;4993726;28;20030;-90
2022/01/12 12:14:18;;;;;;;33.40;17.10;;;6.30;84.20;;;;;;4989424;28;20505;-89
2022/01/12 12:16:45;;;;;;;28.67;15.05;;;6.30;83.70;;;;;;4992841;28;20374;-90
2022/01/12 12:19:11;;;;;;;39.03;17.73;;;6.30;83.70;;;;;;4977636;28;20045;-90
2022/01/12 12:21:37;;;;;;;34.70;18.17;;;6.40;83.90;;;;;;4976623;28;20031;-90
2022/01/12 12:24:12;;;;;;;31.95;16.92;;;6.30;83.60;;;;;;4977419;28;20026;-90
2022/01/12 12:26:52;;;;;;;37.08;16.92;;;6.30;83.90;;;;;;4995772;28;20018;-90
2022/01/12 12:29:28;;;;;;;29.92;16.08;;;6.20;84.10;;;;;;4996698;28;20124;-90
2022/01/12 12:31:58;;;;;;;35.40;16.33;;;6.20;83.90;;;;;;4996261;28;20026;-90
2022/01/12 12:34:28;;;;;;;31.70;16.60;;;6.30;84.00;;;;;;4996853;28;20049;-90
2022/01/12 12:37:05;;;;;;;33.70;16.80;;;6.30;84.10;;;;;;4981053;28;20037;-90
2022/01/12 12:39:36;;;;;;;34.63;16.67;;;6.40;84.20;;;;;;5013071;28;20026;-90
2022/01/12 12:42:05;;;;;;;36.40;17.25;;;6.40;84.00;;;;;;4987469;28;20048;-90
2022/01/12 12:44:33;;;;;;;33.03;15.93;;;6.40;83.70;;;;;;5009819;28;20401;-91
2022/01/12 12:47:13;;;;;;;30.38;15.38;;;6.40;83.90;;;;;;4996814;28;20164;-90
2022/01/12 12:49:47;;;;;;;37.65;18.40;;;6.40;83.90;;;;;;4997068;28;20117;-90
2022/01/12 12:52:20;;;;;;;37.72;19.73;;;6.40;83.90;;;;;;4996492;28;20030;-90
2022/01/12 12:54:46;;;;;;;38.58;18.75;;;6.40;83.80;;;;;;4997284;28;20033;-90
2022/01/12 12:57:12;;;;;;;35.65;17.70;;;6.40;84.00;;;;;;4984798;28;20026;-90
2022/01/12 12:59:38;;;;;;;39.35;19.35;;;6.50;83.80;;;;;;4993463;28;20048;-90
2022/01/12 13:02:13;;;;;;;40.80;19.38;;;6.40;83.40;;;;;;4980443;28;20560;-90
2022/01/12 13:04:40;;;;;;;35.70;18.27;;;6.40;83.10;;;;;;4981668;28;20026;-90
2022/01/12 13:07:19;;;;;;;35.65;18.40;;;6.40;83.10;;;;;;5014894;28;20045;-90
2022/01/12 13:09:45;;;;;;;31.15;16.05;;;6.40;83.30;;;;;;4981157;28;20057;-90
2022/01/12 13:12:13;;;;;;;34.17;17.33;;;6.40;83.40;;;;;;4976847;28;20030;-90
2022/01/12 13:14:45;;;;;;;35.30;17.20;;;6.50;83.40;;;;;;4991255;28;20517;-90
2022/01/12 13:17:11;;;;;;;37.53;16.48;;;6.50;83.20;;;;;;4995592;28;20143;-90
2022/01/12 13:22:24;;;;;;;35.08;16.73;;;6.60;83.30;;;;;;5006289;28;20045;-91
2022/01/12 13:24:50;;;;;;;31.95;15.95;;;6.70;82.80;;;;;;5008460;28;20103;-90
2022/01/12 13:27:16;;;;;;;32.10;16.73;;;6.70;82.70;;;;;;4964398;28;20085;-90
2022/01/12 13:29:49;;;;;;;27.95;14.80;;;6.70;82.80;;;;;;4972442;28;20025;-90
2022/01/12 13:32:15;;;;;;;30.90;15.52;;;6.70;82.70;;;;;;4988090;28;20029;-90
2022/01/12 13:34:43;;;;;;;29.15;14.93;;;6.70;82.80;;;;;;5000278;28;20060;-90
2022/01/12 13:37:15;;;;;;;31.58;16.48;;;6.70;82.70;;;;;;4980742;28;20042;-90
2022/01/12 13:39:43;;;;;;;33.78;17.25;;;6.70;82.10;;;;;;4980528;28;20173;-90
2022/01/12 13:42:12;;;;;;;37.03;17.83;;;6.70;82.20;;;;;;4979685;28;20132;-90
2022/01/12 13:44:38;;;;;;;33.85;17.92;;;6.60;82.10;;;;;;4981292;28;20184;-89
2022/01/12 13:47:10;;;;;;;35.55;17.80;;;6.60;81.90;;;;;;4980241;28;20484;-90
2022/01/12 13:49:36;;;;;;;33.33;17.38;;;6.50;82.00;;;;;;4980827;28;20030;-91
2022/01/12 13:52:06;;;;;;;33.00;16.73;;;6.50;82.30;;;;;;4979437;28;20018;-90
2022/01/12 13:54:41;;;;;;;41.90;19.20;;;6.60;82.50;;;;;;4990998;28;20189;-90
2022/01/12 13:57:09;;;;;;;32.17;16.55;;;6.60;82.50;;;;;;4995997;28;20014;-89
2022/01/12 13:59:52;;;;;;;37.28;18.10;;;6.60;82.20;;;;;;5009964;28;20031;-89
2022/01/12 14:02:19;;;;;;;;;;;6.50;82.50;;;;;;5008591;28;20513;-90
2022/01/12 14:04:54;;;;;;;33.15;16.80;;;6.50;82.50;;;;;;5001780;28;19913;-89
2022/01/12 14:07:24;;;;;;;34.22;16.83;;;6.50;82.40;;;;;;4999569;28;20048;-90
2022/01/12 14:09:59;;;;;;;32.40;15.88;;;6.50;82.40;;;;;;4981793;28;20084;-89
2022/01/12 14:12:29;;;;;;;31.90;16.42;;;6.40;82.40;;;;;;4982018;28;20041;-90
2022/01/12 14:14:59;;;;;;;34.88;15.88;;;6.40;82.50;;;;;;5002798;28;20042;-89
2022/01/12 14:17:25;;;;;;;35.58;17.65;;;6.40;82.50;;;;;;5007688;28;20021;-89
2022/01/12 14:19:57;;;;;;;34.10;17.15;;;6.40;82.30;;;;;;5001828;28;20172;-90